sensor_id;sensor_type;location;lat;lon;timestamp;pressure;altitude;pressure_sealevel;temperature
78917;BMP280;68315;48.608;11.436;2024-01-11T00:00:13;98134.31;;;-7.52
78917;BMP280;68315;48.608;11.436;2024-01-11T00:02:38;98136.56;;;-7.54
78917;BMP280;68315;48.608;11.436;2024-01-11T00:05:03;98133.16;;;-7.58
78917;BMP280;68315;48.608;11.436;2024-01-11T00:07:29;98131.63;;;-7.59
78917;BMP280;68315;48.608;11.436;2024-01-11T00:09:54;98128.97;;;-7.63
78917;BMP280;68315;48.608;11.436;2024-01-11T00:12:19;98125.91;;;-7.61
78917;BMP280;68315;48.608;11.436;2024-01-11T00:14:44;98129.34;;;-7.61
78917;BMP280;68315;48.608;11.436;2024-01-11T00:17:10;98129.34;;;-7.61
78917;BMP280;68315;48.608;11.436;2024-01-11T00:19:35;98125.91;;;-7.61
78917;BMP280;68315;48.608;11.436;2024-01-11T00:22:00;98131.63;;;-7.59
78917;BMP280;68315;48.608;11.436;2024-01-11T00:24:26;98129.34;;;-7.61
78917;BMP280;68315;48.608;11.436;2024-01-11T00:26:51;98132.38;;;-7.62
78917;BMP280;68315;48.608;11.436;2024-01-11T00:29:17;98132.75;;;-7.64
78917;BMP280;68315;48.608;11.436;2024-01-11T00:31:42;98132.75;;;-7.64
78917;BMP280;68315;48.608;11.436;2024-01-11T00:34:07;98132.38;;;-7.66
78917;BMP280;68315;48.608;11.436;2024-01-11T00:36:32;98133.13;;;-7.65
78917;BMP280;68315;48.608;11.436;2024-01-11T00:38:58;98138.09;;;-7.64
78917;BMP280;68315;48.608;11.436;2024-01-11T00:41:24;98130.44;;;-7.65
78917;BMP280;68315;48.608;11.436;2024-01-11T00:43:50;98123.22;;;-7.65
78917;BMP280;68315;48.608;11.436;2024-01-11T00:46:15;98130.84;;;-7.63
78917;BMP280;68315;48.608;11.436;2024-01-11T00:48:40;98128.19;;;-7.63
78917;BMP280;68315;48.608;11.436;2024-01-11T00:51:05;98117.50;;;-7.67
78917;BMP280;68315;48.608;11.436;2024-01-11T00:53:31;98129.31;;;-7.71
78917;BMP280;68315;48.608;11.436;2024-01-11T00:56:00;98124.72;;;-7.74
78917;BMP280;68315;48.608;11.436;2024-01-11T00:58:25;98128.91;;;-7.77
78917;BMP280;68315;48.608;11.436;2024-01-11T01:00:51;98128.50;;;-7.79
78917;BMP280;68315;48.608;11.436;2024-01-11T01:03:18;98127.75;;;-7.79
78917;BMP280;68315;48.608;11.436;2024-01-11T01:05:44;98127.00;;;-7.80
78917;BMP280;68315;48.608;11.436;2024-01-11T01:08:10;98120.53;;;-7.82
78917;BMP280;68315;48.608;11.436;2024-01-11T01:10:35;98130.78;;;-7.84
78917;BMP280;68315;48.608;11.436;2024-01-11T01:13:00;98133.81;;;-7.86
78917;BMP280;68315;48.608;11.436;2024-01-11T01:15:25;98132.69;;;-7.88
78917;BMP280;68315;48.608;11.436;2024-01-11T01:17:51;98128.47;;;-7.89
78917;BMP280;68315;48.608;11.436;2024-01-11T01:20:16;98128.47;;;-7.89
78917;BMP280;68315;48.608;11.436;2024-01-11T01:22:41;98133.41;;;-7.88
78917;BMP280;68315;48.608;11.436;2024-01-11T01:25:07;98141.03;;;-7.90
78917;BMP280;68315;48.608;11.436;2024-01-11T01:27:32;98141.44;;;-7.92
78917;BMP280;68315;48.608;11.436;2024-01-11T01:29:57;98146.75;;;-7.92
78917;BMP280;68315;48.608;11.436;2024-01-11T01:32:23;98149.03;;;-7.94
78917;BMP280;68315;48.608;11.436;2024-01-11T01:34:48;98150.50;;;-7.96
78917;BMP280;68315;48.608;11.436;2024-01-11T01:37:13;98146.34;;;-7.94
78917;BMP280;68315;48.608;11.436;2024-01-11T01:39:38;98152.09;;;-7.92
78917;BMP280;68315;48.608;11.436;2024-01-11T01:42:04;98157.03;;;-7.94
78917;BMP280;68315;48.608;11.436;2024-01-11T01:44:30;98157.38;;;-7.99
78917;BMP280;68315;48.608;11.436;2024-01-11T01:46:55;98159.66;;;-8.01
78917;BMP280;68315;48.608;11.436;2024-01-11T01:49:20;98157.34;;;-8.02
78917;BMP280;68315;48.608;11.436;2024-01-11T01:51:47;98156.63;;;-8.03
78917;BMP280;68315;48.608;11.436;2024-01-11T01:54:13;98161.94;;;-8.03
78917;BMP280;68315;48.608;11.436;2024-01-11T01:56:38;98167.28;;;-8.03
78917;BMP280;68315;48.608;11.436;2024-01-11T01:59:04;98166.91;;;-8.01
78917;BMP280;68315;48.608;11.436;2024-01-11T02:01:30;98159.66;;;-8.01
78917;BMP280;68315;48.608;11.436;2024-01-11T02:03:55;98165.34;;;-8.02
78917;BMP280;68315;48.608;11.436;2024-01-11T02:06:23;98159.28;;;-8.03
78917;BMP280;68315;48.608;11.436;2024-01-11T02:08:52;98163.06;;;-8.04
78917;BMP280;68315;48.608;11.436;2024-01-11T02:11:20;98157.34;;;-8.02
78917;BMP280;68315;48.608;11.436;2024-01-11T02:13:46;98161.19;;;-8.03
78917;BMP280;68315;48.608;11.436;2024-01-11T02:16:13;98159.28;;;-8.03
78917;BMP280;68315;48.608;11.436;2024-01-11T02:18:38;98156.22;;;-8.05
78917;BMP280;68315;48.608;11.436;2024-01-11T02:21:06;98150.16;;;-8.05
78917;BMP280;68315;48.608;11.436;2024-01-11T02:23:34;98156.63;;;-8.03
78917;BMP280;68315;48.608;11.436;2024-01-11T02:26:01;98165.38;;;-8.06
78917;BMP280;68315;48.608;11.436;2024-01-11T02:28:26;98161.88;;;-8.10
78917;BMP280;68315;48.608;11.436;2024-01-11T02:30:51;98157.31;;;-8.13
78917;BMP280;68315;48.608;11.436;2024-01-11T02:33:17;98147.81;;;-8.14
78917;BMP280;68315;48.608;11.436;2024-01-11T02:35:43;98148.91;;;-8.18
78917;BMP280;68315;48.608;11.436;2024-01-11T02:38:11;98163.34;;;-8.23
78917;BMP280;68315;48.608;11.436;2024-01-11T02:40:37;98156.88;;;-8.25
78917;BMP280;68315;48.608;11.436;2024-01-11T02:43:11;98162.56;;;-8.27
78917;BMP280;68315;48.608;11.436;2024-01-11T02:45:37;98161.03;;;-8.28
78917;BMP280;68315;48.608;11.436;2024-01-11T02:48:03;98164.81;;;-8.29
78917;BMP280;68315;48.608;11.436;2024-01-11T02:50:28;98167.50;;;-8.29
78917;BMP280;68315;48.608;11.436;2024-01-11T02:52:53;98157.97;;;-8.30
78917;BMP280;68315;48.608;11.436;2024-01-11T02:55:19;98157.97;;;-8.30
78917;BMP280;68315;48.608;11.436;2024-01-11T02:57:44;98157.19;;;-8.34
78917;BMP280;68315;48.608;11.436;2024-01-11T03:00:09;98154.13;;;-8.36
78917;BMP280;68315;48.608;11.436;2024-01-11T03:02:37;98147.63;;;-8.39
78917;BMP280;68315;48.608;11.436;2024-01-11T03:05:02;98149.56;;;-8.39
78917;BMP280;68315;48.608;11.436;2024-01-11T03:07:27;98153.34;;;-8.40
78917;BMP280;68315;48.608;11.436;2024-01-11T03:09:53;98154.47;;;-8.41
78917;BMP280;68315;48.608;11.436;2024-01-11T03:12:18;98146.47;;;-8.41
78917;BMP280;68315;48.608;11.436;2024-01-11T03:14:44;98149.91;;;-8.41
78917;BMP280;68315;48.608;11.436;2024-01-11T03:17:09;98141.16;;;-8.41
78917;BMP280;68315;48.608;11.436;2024-01-11T03:19:39;98139.22;;;-8.44
78917;BMP280;68315;48.608;11.436;2024-01-11T03:22:05;98142.66;;;-8.47
78917;BMP280;68315;48.608;11.436;2024-01-11T03:24:31;98135.41;;;-8.47
78917;BMP280;68315;48.608;11.436;2024-01-11T03:26:57;98116.00;;;-8.47
78917;BMP280;68315;48.608;11.436;2024-01-11T03:29:22;98128.59;;;-8.48
78917;BMP280;68315;48.608;11.436;2024-01-11T03:31:47;98121.31;;;-8.51
78917;BMP280;68315;48.608;11.436;2024-01-11T03:34:12;98126.63;;;-8.51
78917;BMP280;68315;48.608;11.436;2024-01-11T03:36:38;98119.00;;;-8.52
78917;BMP280;68315;48.608;11.436;2024-01-11T03:39:03;98123.56;;;-8.53
78917;BMP280;68315;48.608;11.436;2024-01-11T03:41:28;98113.31;;;-8.54
78917;BMP280;68315;48.608;11.436;2024-01-11T03:43:53;98110.63;;;-8.54
78917;BMP280;68315;48.608;11.436;2024-01-11T03:46:19;98114.44;;;-8.55
78917;BMP280;68315;48.608;11.436;2024-01-11T03:48:45;98116.72;;;-8.57
78917;BMP280;68315;48.608;11.436;2024-01-11T03:51:10;98123.13;;;-8.58
78917;BMP280;68315;48.608;11.436;2024-01-11T03:53:36;98122.38;;;-8.59
78917;BMP280;68315;48.608;11.436;2024-01-11T03:56:04;98122.03;;;-8.57
78917;BMP280;68315;48.608;11.436;2024-01-11T03:58:30;98110.22;;;-8.60
78917;BMP280;68315;48.608;11.436;2024-01-11T04:00:55;98122.75;;;-8.60
78917;BMP280;68315;48.608;11.436;2024-01-11T04:03:20;98123.16;;;-8.62
78917;BMP280;68315;48.608;11.436;2024-01-11T04:05:45;98118.94;;;-8.66
78917;BMP280;68315;48.608;11.436;2024-01-11T04:08:11;98119.66;;;-8.69
78917;BMP280;68315;48.608;11.436;2024-01-11T04:10:40;98119.66;;;-8.69
78917;BMP280;68315;48.608;11.436;2024-01-11T04:13:07;98113.56;;;-8.70
78917;BMP280;68315;48.608;11.436;2024-01-11T04:15:32;98121.16;;;-8.72
78917;BMP280;68315;48.608;11.436;2024-01-11T04:17:57;98123.81;;;-8.72
78917;BMP280;68315;48.608;11.436;2024-01-11T04:20:22;98117.72;;;-8.72
78917;BMP280;68315;48.608;11.436;2024-01-11T04:22:49;98117.75;;;-8.69
78917;BMP280;68315;48.608;11.436;2024-01-11T04:25:14;98115.84;;;-8.68
78917;BMP280;68315;48.608;11.436;2024-01-11T04:27:39;98128.81;;;-8.67
78917;BMP280;68315;48.608;11.436;2024-01-11T04:30:05;98128.81;;;-8.67
78917;BMP280;68315;48.608;11.436;2024-01-11T04:32:31;98133.41;;;-8.67
78917;BMP280;68315;48.608;11.436;2024-01-11T04:34:56;98121.53;;;-8.70
78917;BMP280;68315;48.608;11.436;2024-01-11T04:37:21;98119.25;;;-8.71
78917;BMP280;68315;48.608;11.436;2024-01-11T04:39:46;98119.25;;;-8.71
78917;BMP280;68315;48.608;11.436;2024-01-11T04:42:12;98122.69;;;-8.71
78917;BMP280;68315;48.608;11.436;2024-01-11T04:44:37;98122.69;;;-8.71
78917;BMP280;68315;48.608;11.436;2024-01-11T04:47:02;98121.16;;;-8.72
78917;BMP280;68315;48.608;11.436;2024-01-11T04:49:28;98123.06;;;-8.72
78917;BMP280;68315;48.608;11.436;2024-01-11T04:51:53;98130.28;;;-8.73
78917;BMP280;68315;48.608;11.436;2024-01-11T04:54:18;98129.53;;;-8.73
78917;BMP280;68315;48.608;11.436;2024-01-11T04:56:43;98128.38;;;-8.72
78917;BMP280;68315;48.608;11.436;2024-01-11T04:59:09;98119.63;;;-8.73
78917;BMP280;68315;48.608;11.436;2024-01-11T05:01:34;98120.41;;;-8.76
78917;BMP280;68315;48.608;11.436;2024-01-11T05:04:00;98125.72;;;-8.76
78917;BMP280;68315;48.608;11.436;2024-01-11T05:06:25;98122.63;;;-8.78
78917;BMP280;68315;48.608;11.436;2024-01-11T05:08:51;98126.78;;;-8.80
78917;BMP280;68315;48.608;11.436;2024-01-11T05:11:21;98122.22;;;-8.83
78917;BMP280;68315;48.608;11.436;2024-01-11T05:13:47;98126.41;;;-8.82
78917;BMP280;68315;48.608;11.436;2024-01-11T05:18:44;98123.00;;;-8.79
78917;BMP280;68315;48.608;11.436;2024-01-11T05:21:10;98123.78;;;-8.79
78917;BMP280;68315;48.608;11.436;2024-01-11T05:23:35;98122.63;;;-8.78
78917;BMP280;68315;48.608;11.436;2024-01-11T05:26:00;98124.13;;;-8.80
78917;BMP280;68315;48.608;11.436;2024-01-11T05:28:26;98130.19;;;-8.83
78917;BMP280;68315;48.608;11.436;2024-01-11T05:30:51;98130.19;;;-8.87
78917;BMP280;68315;48.608;11.436;2024-01-11T05:33:16;98125.19;;;-8.92
78917;BMP280;68315;48.608;11.436;2024-01-11T05:35:41;98136.97;;;-8.93
78917;BMP280;68315;48.608;11.436;2024-01-11T05:38:06;98137.34;;;-8.95
78917;BMP280;68315;48.608;11.436;2024-01-11T05:40:32;98129.34;;;-8.95
78917;BMP280;68315;48.608;11.436;2024-01-11T05:42:57;98133.16;;;-8.96
78917;BMP280;68315;48.608;11.436;2024-01-11T05:45:22;98141.91;;;-8.95
78917;BMP280;68315;48.608;11.436;2024-01-11T05:47:47;98147.63;;;-8.93
78917;BMP280;68315;48.608;11.436;2024-01-11T05:50:13;98151.41;;;-8.94
78917;BMP280;68315;48.608;11.436;2024-01-11T05:52:38;98153.69;;;-8.93
78917;BMP280;68315;48.608;11.436;2024-01-11T05:55:03;98174.59;;;-8.95
78917;BMP280;68315;48.608;11.436;2024-01-11T05:57:30;98165.81;;;-8.99
78917;BMP280;68315;48.608;11.436;2024-01-11T05:59:55;98175.69;;;-8.99
78917;BMP280;68315;48.608;11.436;2024-01-11T06:02:20;98176.13;;;-8.97
78917;BMP280;68315;48.608;11.436;2024-01-11T06:04:47;98175.75;;;-8.96
78917;BMP280;68315;48.608;11.436;2024-01-11T06:07:14;98180.31;;;-8.93
78917;BMP280;68315;48.608;11.436;2024-01-11T06:09:39;98171.97;;;-8.91
78917;BMP280;68315;48.608;11.436;2024-01-11T06:12:05;98169.66;;;-8.93
78917;BMP280;68315;48.608;11.436;2024-01-11T06:14:30;98177.66;;;-8.93
78917;BMP280;68315;48.608;11.436;2024-01-11T06:16:55;98184.91;;;-8.93
78917;BMP280;68315;48.608;11.436;2024-01-11T06:19:20;98189.06;;;-8.96
78917;BMP280;68315;48.608;11.436;2024-01-11T06:21:46;98177.59;;;-9.00
78917;BMP280;68315;48.608;11.436;2024-01-11T06:24:12;98179.88;;;-9.02
78917;BMP280;68315;48.608;11.436;2024-01-11T06:26:37;98174.91;;;-9.03
78917;BMP280;68315;48.608;11.436;2024-01-11T06:29:02;98174.91;;;-9.03
78917;BMP280;68315;48.608;11.436;2024-01-11T06:31:27;98168.44;;;-9.06
78917;BMP280;68315;48.608;11.436;2024-01-11T06:33:52;98169.09;;;-9.12
78917;BMP280;68315;48.608;11.436;2024-01-11T06:36:18;98170.16;;;-9.20
78917;BMP280;68315;48.608;11.436;2024-01-11T06:38:43;98171.59;;;-9.26
78917;BMP280;68315;48.608;11.436;2024-01-11T06:41:08;98174.66;;;-9.28
78917;BMP280;68315;48.608;11.436;2024-01-11T06:43:33;98179.19;;;-9.28
78917;BMP280;68315;48.608;11.436;2024-01-11T06:46:05;98182.63;;;-9.28
78917;BMP280;68315;48.608;11.436;2024-01-11T06:48:31;98170.88;;;-9.27
78917;BMP280;68315;48.608;11.436;2024-01-11T06:50:57;98173.56;;;-9.23
78917;BMP280;68315;48.608;11.436;2024-01-11T06:53:22;98182.31;;;-9.23
78917;BMP280;68315;48.608;11.436;2024-01-11T06:55:47;98191.84;;;-9.22
78917;BMP280;68315;48.608;11.436;2024-01-11T06:58:13;98196.41;;;-9.19
78917;BMP280;68315;48.608;11.436;2024-01-11T07:00:38;98195.66;;;-9.19
78917;BMP280;68315;48.608;11.436;2024-01-11T07:03:08;98183.88;;;-9.18
78917;BMP280;68315;48.608;11.436;2024-01-11T07:05:33;98189.94;;;-9.18
78917;BMP280;68315;48.608;11.436;2024-01-11T07:07:59;98204.47;;;-9.15
78917;BMP280;68315;48.608;11.436;2024-01-11T07:10:24;98199.16;;;-9.12
78917;BMP280;68315;48.608;11.436;2024-01-11T07:12:49;98198.75;;;-9.14
78917;BMP280;68315;48.608;11.436;2024-01-11T07:15:14;98189.22;;;-9.18
78917;BMP280;68315;48.608;11.436;2024-01-11T07:17:40;98189.94;;;-9.21
78917;BMP280;68315;48.608;11.436;2024-01-11T07:20:05;98190.28;;;-9.23
78917;BMP280;68315;48.608;11.436;2024-01-11T07:22:31;98195.25;;;-9.21
78917;BMP280;68315;48.608;11.436;2024-01-11T07:24:56;98204.75;;;-9.20
78917;BMP280;68315;48.608;11.436;2024-01-11T07:27:21;98211.63;;;-9.19
78917;BMP280;68315;48.608;11.436;2024-01-11T07:29:47;98208.22;;;-9.16
78917;BMP280;68315;48.608;11.436;2024-01-11T07:32:12;98210.56;;;-9.11
78917;BMP280;68315;48.608;11.436;2024-01-11T07:34:37;98222.81;;;-9.03
78917;BMP280;68315;48.608;11.436;2024-01-11T07:37:02;98226.34;;;-8.96
78917;BMP280;68315;48.608;11.436;2024-01-11T07:39:31;98229.44;;;-8.87
78917;BMP280;68315;48.608;11.436;2024-01-11T07:41:56;98229.56;;;-8.72
78917;BMP280;68315;48.608;11.436;2024-01-11T07:44:21;98230.81;;;-8.63
78917;BMP280;68315;48.608;11.436;2024-01-11T07:46:47;98237.72;;;-8.55
78917;BMP280;68315;48.608;11.436;2024-01-11T07:49:12;98249.63;;;-8.45
78917;BMP280;68315;48.608;11.436;2024-01-11T07:51:37;98250.47;;;-8.34
78917;BMP280;68315;48.608;11.436;2024-01-11T07:54:04;98258.91;;;-8.21
78917;BMP280;68315;48.608;11.436;2024-01-11T07:56:30;98268.16;;;-8.08
78917;BMP280;68315;48.608;11.436;2024-01-11T07:58:55;98267.13;;;-7.93
78917;BMP280;68315;48.608;11.436;2024-01-11T08:01:20;98271.00;;;-7.80
78917;BMP280;68315;48.608;11.436;2024-01-11T08:03:45;98263.44;;;-7.67
78917;BMP280;68315;48.608;11.436;2024-01-11T08:06:11;98276.47;;;-7.55
78917;BMP280;68315;48.608;11.436;2024-01-11T08:08:39;98278.81;;;-7.43
78917;BMP280;68315;48.608;11.436;2024-01-11T08:11:07;98278.09;;;-7.29
78917;BMP280;68315;48.608;11.436;2024-01-11T08:13:32;98281.19;;;-7.17
78917;BMP280;68315;48.608;11.436;2024-01-11T08:15:57;98283.50;;;-7.12
78917;BMP280;68315;48.608;11.436;2024-01-11T08:18:22;98286.94;;;-7.08
78917;BMP280;68315;48.608;11.436;2024-01-11T08:20:48;98282.03;;;-6.99
78917;BMP280;68315;48.608;11.436;2024-01-11T08:23:14;98282.03;;;-6.95
78917;BMP280;68315;48.608;11.436;2024-01-11T08:25:39;98292.72;;;-6.91
78917;BMP280;68315;48.608;11.436;2024-01-11T08:28:04;98300.00;;;-6.81
78917;BMP280;68315;48.608;11.436;2024-01-11T08:30:29;98294.28;;;-6.69
78917;BMP280;68315;48.608;11.436;2024-01-11T08:32:55;98287.44;;;-6.63
78917;BMP280;68315;48.608;11.436;2024-01-11T08:35:21;98292.03;;;-6.57
78917;BMP280;68315;48.608;11.436;2024-01-11T08:37:46;98287.84;;;-6.47
78917;BMP280;68315;48.608;11.436;2024-01-11T08:40:11;98284.00;;;-6.43
78917;BMP280;68315;48.608;11.436;2024-01-11T08:42:37;98285.19;;;-6.40
78917;BMP280;68315;48.608;11.436;2024-01-11T08:45:04;98289.38;;;-6.35
78917;BMP280;68315;48.608;11.436;2024-01-11T08:47:33;98280.59;;;-6.39
78917;BMP280;68315;48.608;11.436;2024-01-11T08:49:58;98282.09;;;-6.35
78917;BMP280;68315;48.608;11.436;2024-01-11T08:52:23;98277.91;;;-6.32
78917;BMP280;68315;48.608;11.436;2024-01-11T08:54:48;98280.59;;;-6.36
78917;BMP280;68315;48.608;11.436;2024-01-11T08:57:14;98276.38;;;-6.30
78917;BMP280;68315;48.608;11.436;2024-01-11T08:59:40;98272.94;;;-6.20
78917;BMP280;68315;48.608;11.436;2024-01-11T09:02:06;98265.28;;;-6.07
78917;BMP280;68315;48.608;11.436;2024-01-11T09:04:31;98266.78;;;-5.96
78917;BMP280;68315;48.608;11.436;2024-01-11T09:06:57;98266.75;;;-5.81
78917;BMP280;68315;48.608;11.436;2024-01-11T09:09:22;98274.41;;;-5.69
78917;BMP280;68315;48.608;11.436;2024-01-11T09:11:47;98275.88;;;-5.61
78917;BMP280;68315;48.608;11.436;2024-01-11T09:14:12;98282.34;;;-5.55
78917;BMP280;68315;48.608;11.436;2024-01-11T09:16:38;98287.28;;;-5.43
78917;BMP280;68315;48.608;11.436;2024-01-11T09:19:05;98291.03;;;-5.26
78917;BMP280;68315;48.608;11.436;2024-01-11T09:21:30;98286.38;;;-5.05
78917;BMP280;68315;48.608;11.436;2024-01-11T09:23:55;98284.72;;;-4.88
78917;BMP280;68315;48.608;11.436;2024-01-11T09:26:20;98276.97;;;-4.72
78917;BMP280;68315;48.608;11.436;2024-01-11T09:28:47;98280.38;;;-4.64
78917;BMP280;68315;48.608;11.436;2024-01-11T09:31:13;98282.53;;;-4.49
78917;BMP280;68315;48.608;11.436;2024-01-11T09:33:38;98281.63;;;-4.31
78917;BMP280;68315;48.608;11.436;2024-01-11T09:36:03;98276.53;;;-4.19
78917;BMP280;68315;48.608;11.436;2024-01-11T09:38:29;98271.13;;;-4.12
78917;BMP280;68315;48.608;11.436;2024-01-11T09:41:08;98264.09;;;-3.99
78917;BMP280;68315;48.608;11.436;2024-01-11T09:43:34;98267.47;;;-3.91
78917;BMP280;68315;48.608;11.436;2024-01-11T09:46:03;98266.22;;;-3.83
78917;BMP280;68315;48.608;11.436;2024-01-11T09:48:29;98273.09;;;-3.78
78917;BMP280;68315;48.608;11.436;2024-01-11T09:50:57;98267.56;;;-3.64
78917;BMP280;68315;48.608;11.436;2024-01-11T09:53:24;98268.38;;;-3.37
78917;BMP280;68315;48.608;11.436;2024-01-11T09:55:50;98268.44;;;-3.14
78917;BMP280;68315;48.608;11.436;2024-01-11T09:58:16;98256.72;;;-3.00
78917;BMP280;68315;48.608;11.436;2024-01-11T10:00:41;98249.06;;;-3.02
78917;BMP280;68315;48.608;11.436;2024-01-11T10:03:07;98250.56;;;-3.01
78917;BMP280;68315;48.608;11.436;2024-01-11T10:05:34;98244.47;;;-3.05
78917;BMP280;68315;48.608;11.436;2024-01-11T10:08:00;98239.09;;;-3.05
78917;BMP280;68315;48.608;11.436;2024-01-11T10:10:26;98229.03;;;-2.97
78917;BMP280;68315;48.608;11.436;2024-01-11T10:12:52;98238.91;;;-2.91
78917;BMP280;68315;48.608;11.436;2024-01-11T10:15:17;98232.81;;;-2.91
78917;BMP280;68315;48.608;11.436;2024-01-11T10:17:43;98230.75;;;-2.84
78917;BMP280;68315;48.608;11.436;2024-01-11T10:20:11;98233.31;;;-2.76
78917;BMP280;68315;48.608;11.436;2024-01-11T10:22:39;98237.00;;;-2.67
78917;BMP280;68315;48.608;11.436;2024-01-11T10:25:10;98233.38;;;-2.57
78917;BMP280;68315;48.608;11.436;2024-01-11T10:27:42;98234.16;;;-2.37
78917;BMP280;68315;48.608;11.436;2024-01-11T10:30:11;98229.09;;;-2.11
78917;BMP280;68315;48.608;11.436;2024-01-11T10:32:41;98241.69;;;-1.85
78917;BMP280;68315;48.608;11.436;2024-01-11T10:35:07;98249.34;;;-1.64
78917;BMP280;68315;48.608;11.436;2024-01-11T10:37:33;98247.63;;;-1.38
78917;BMP280;68315;48.608;11.436;2024-01-11T10:40:02;98246.09;;;-1.20
78917;BMP280;68315;48.608;11.436;2024-01-11T10:42:31;98232.94;;;-1.18
78917;BMP280;68315;48.608;11.436;2024-01-11T10:44:59;98228.47;;;-1.24
78917;BMP280;68315;48.608;11.436;2024-01-11T10:47:24;98230.25;;;-1.18
78917;BMP280;68315;48.608;11.436;2024-01-11T10:49:52;98217.13;;;-0.99
78917;BMP280;68315;48.608;11.436;2024-01-11T10:52:21;98221.94;;;-0.91
78917;BMP280;68315;48.608;11.436;2024-01-11T10:54:48;98222.50;;;-0.83
78917;BMP280;68315;48.608;11.436;2024-01-11T10:57:15;98231.16;;;-0.60
78917;BMP280;68315;48.608;11.436;2024-01-11T10:59:41;98242.34;;;-0.29
78917;BMP280;68315;48.608;11.436;2024-01-11T11:02:08;98226.94;;;-0.16
78917;BMP280;68315;48.608;11.436;2024-01-11T11:04:38;98232.59;;;-0.10
78917;BMP280;68315;48.608;11.436;2024-01-11T11:07:04;98241.69;;;0.09
78917;BMP280;68315;48.608;11.436;2024-01-11T11:09:34;98231.69;;;0.22
78917;BMP280;68315;48.608;11.436;2024-01-11T11:12:00;98230.19;;;0.33
78917;BMP280;68315;48.608;11.436;2024-01-11T11:14:25;98236.16;;;0.53
78917;BMP280;68315;48.608;11.436;2024-01-11T11:16:52;98240.81;;;0.53
78917;BMP280;68315;48.608;11.436;2024-01-11T11:19:19;98241.78;;;0.59
78917;BMP280;68315;48.608;11.436;2024-01-11T11:21:47;98219.16;;;0.66
78917;BMP280;68315;48.608;11.436;2024-01-11T11:24:13;98215.19;;;0.70
78917;BMP280;68315;48.608;11.436;2024-01-11T11:26:38;98217.31;;;0.88
78917;BMP280;68315;48.608;11.436;2024-01-11T11:29:04;98218.50;;;1.12
78917;BMP280;68315;48.608;11.436;2024-01-11T11:31:36;98210.78;;;1.23
78917;BMP280;68315;48.608;11.436;2024-01-11T11:34:03;98193.88;;;1.32
78917;BMP280;68315;48.608;11.436;2024-01-11T11:36:29;98179.06;;;1.11
78917;BMP280;68315;48.608;11.436;2024-01-11T11:38:56;98182.56;;;0.99
78917;BMP280;68315;48.608;11.436;2024-01-11T11:41:26;98201.28;;;0.93
78917;BMP280;68315;48.608;11.436;2024-01-11T11:43:51;98194.72;;;0.82
78917;BMP280;68315;48.608;11.436;2024-01-11T11:46:17;98198.72;;;0.90
78917;BMP280;68315;48.608;11.436;2024-01-11T11:48:49;98190.22;;;1.13
78917;BMP280;68315;48.608;11.436;2024-01-11T11:51:17;98181.69;;;1.36
78917;BMP280;68315;48.608;11.436;2024-01-11T11:53:43;98183.69;;;1.79
78917;BMP280;68315;48.608;11.436;2024-01-11T11:56:11;98206.53;;;2.00
78917;BMP280;68315;48.608;11.436;2024-01-11T11:58:37;98203.63;;;2.16
78917;BMP280;68315;48.608;11.436;2024-01-11T12:01:04;98208.78;;;2.23
78917;BMP280;68315;48.608;11.436;2024-01-11T12:03:32;98193.38;;;2.51
78917;BMP280;68315;48.608;11.436;2024-01-11T12:05:58;98186.78;;;2.61
78917;BMP280;68315;48.608;11.436;2024-01-11T12:08:24;98189.06;;;2.80
78917;BMP280;68315;48.608;11.436;2024-01-11T12:10:50;98188.81;;;3.05
78917;BMP280;68315;48.608;11.436;2024-01-11T12:13:15;98192.13;;;3.28
78917;BMP280;68315;48.608;11.436;2024-01-11T12:15:41;98200.59;;;3.48
78917;BMP280;68315;48.608;11.436;2024-01-11T12:18:07;98185.81;;;3.58
78917;BMP280;68315;48.608;11.436;2024-01-11T12:20:33;98187.56;;;3.79
78917;BMP280;68315;48.608;11.436;2024-01-11T12:22:58;98188.25;;;4.07
78917;BMP280;68315;48.608;11.436;2024-01-11T12:25:24;98191.97;;;4.27
78917;BMP280;68315;48.608;11.436;2024-01-11T12:27:49;98182.03;;;4.15
78917;BMP280;68315;48.608;11.436;2024-01-11T12:30:17;98189.31;;;4.09
78917;BMP280;68315;48.608;11.436;2024-01-11T12:32:43;98186.03;;;3.96
78917;BMP280;68315;48.608;11.436;2024-01-11T12:35:09;98185.63;;;3.89
78917;BMP280;68315;48.608;11.436;2024-01-11T12:37:34;98164.63;;;3.89
78917;BMP280;68315;48.608;11.436;2024-01-11T12:39:59;98153.09;;;3.94
78917;BMP280;68315;48.608;11.436;2024-01-11T12:42:28;98150.66;;;4.05
78917;BMP280;68315;48.608;11.436;2024-01-11T12:44:53;98156.63;;;4.18
78917;BMP280;68315;48.608;11.436;2024-01-11T12:47:19;98165.69;;;4.24
78917;BMP280;68315;48.608;11.436;2024-01-11T12:49:45;98161.91;;;4.31
78917;BMP280;68315;48.608;11.436;2024-01-11T12:52:20;98170.28;;;4.42
78917;BMP280;68315;48.608;11.436;2024-01-11T12:54:45;98166.75;;;4.18
78917;BMP280;68315;48.608;11.436;2024-01-11T12:57:19;98161.25;;;4.03
78917;BMP280;68315;48.608;11.436;2024-01-11T12:59:46;98169.53;;;4.09
78917;BMP280;68315;48.608;11.436;2024-01-11T13:02:11;98170.38;;;4.15
78917;BMP280;68315;48.608;11.436;2024-01-11T13:04:40;98170.84;;;4.13
78917;BMP280;68315;48.608;11.436;2024-01-11T13:07:06;98161.19;;;4.12
78917;BMP280;68315;48.608;11.436;2024-01-11T13:09:32;98168.69;;;4.26
78917;BMP280;68315;48.608;11.436;2024-01-11T13:11:58;98165.00;;;4.39
78917;BMP280;68315;48.608;11.436;2024-01-11T13:14:23;98164.16;;;4.56
78917;BMP280;68315;48.608;11.436;2024-01-11T13:16:48;98151.00;;;4.55
78917;BMP280;68315;48.608;11.436;2024-01-11T13:19:14;98152.88;;;4.49
78917;BMP280;68315;48.608;11.436;2024-01-11T13:21:39;98147.97;;;4.62
78917;BMP280;68315;48.608;11.436;2024-01-11T13:24:05;98153.28;;;4.80
78917;BMP280;68315;48.608;11.436;2024-01-11T13:26:32;98147.78;;;4.89
78917;BMP280;68315;48.608;11.436;2024-01-11T13:28:57;98148.03;;;5.15
78917;BMP280;68315;48.608;11.436;2024-01-11T13:31:23;98138.09;;;5.41
78917;BMP280;68315;48.608;11.436;2024-01-11T13:33:48;98128.97;;;5.29
78917;BMP280;68315;48.608;11.436;2024-01-11T13:36:14;98116.66;;;5.05
78917;BMP280;68315;48.608;11.436;2024-01-11T13:38:39;98124.88;;;4.95
78917;BMP280;68315;48.608;11.436;2024-01-11T13:41:06;98136.16;;;5.03
78917;BMP280;68315;48.608;11.436;2024-01-11T13:43:33;98135.66;;;4.90
78917;BMP280;68315;48.608;11.436;2024-01-11T13:45:58;98138.56;;;4.86
78917;BMP280;68315;48.608;11.436;2024-01-11T13:48:23;98142.69;;;4.96
78917;BMP280;68315;48.608;11.436;2024-01-11T13:50:49;98149.34;;;5.19
78917;BMP280;68315;48.608;11.436;2024-01-11T13:53:14;98158.50;;;5.45